sensor_id;sensor_type;location;lat;lon;timestamp;P1;durP1;ratioP1;P2;durP2;ratioP2
71148;SDS011;59072;42.144;25.200;2023-06-10T00:00:39;9.45;;;6.82;;
71148;SDS011;59072;42.144;25.200;2023-06-10T00:03:06;11.18;;;7.53;;
71148;SDS011;59072;42.144;25.200;2023-06-10T00:05:33;10.32;;;6.88;;
71148;SDS011;59072;42.144;25.200;2023-06-10T00:08:00;11.88;;;7.43;;
71148;SDS011;59072;42.144;25.200;2023-06-10T00:10:32;11.23;;;7.20;;
71148;SDS011;59072;42.144;25.200;2023-06-10T00:13:01;12.70;;;7.55;;
71148;SDS011;59072;42.144;25.200;2023-06-10T00:17:54;13.52;;;7.13;;
71148;SDS011;59072;42.144;25.200;2023-06-10T00:20:20;10.73;;;7.32;;
71148;SDS011;59072;42.144;25.200;2023-06-10T00:22:48;12.23;;;7.10;;
71148;SDS011;59072;42.144;25.200;2023-06-10T00:25:14;11.77;;;7.35;;
71148;SDS011;59072;42.144;25.200;2023-06-10T00:27:40;10.65;;;6.85;;
71148;SDS011;59072;42.144;25.200;2023-06-10T00:30:06;10.13;;;6.72;;
71148;SDS011;59072;42.144;25.200;2023-06-10T00:32:32;11.07;;;6.22;;
71148;SDS011;59072;42.144;25.200;2023-06-10T00:35:01;10.70;;;6.60;;
71148;SDS011;59072;42.144;25.200;2023-06-10T00:37:28;12.40;;;7.00;;
71148;SDS011;59072;42.144;25.200;2023-06-10T00:39:54;11.85;;;7.53;;
71148;SDS011;59072;42.144;25.200;2023-06-10T00:42:19;10.73;;;6.43;;
71148;SDS011;59072;42.144;25.200;2023-06-10T00:44:47;10.40;;;7.05;;
71148;SDS011;59072;42.144;25.200;2023-06-10T00:47:12;11.18;;;7.03;;
71148;SDS011;59072;42.144;25.200;2023-06-10T00:49:38;10.38;;;6.50;;
71148;SDS011;59072;42.144;25.200;2023-06-10T00:52:04;12.05;;;7.05;;
71148;SDS011;59072;42.144;25.200;2023-06-10T00:54:31;12.50;;;6.73;;
71148;SDS011;59072;42.144;25.200;2023-06-10T00:56:59;14.32;;;7.00;;
71148;SDS011;59072;42.144;25.200;2023-06-10T00:59:26;12.05;;;6.95;;
71148;SDS011;59072;42.144;25.200;2023-06-10T01:01:53;13.07;;;6.80;;
71148;SDS011;59072;42.144;25.200;2023-06-10T01:04:18;14.93;;;6.72;;
71148;SDS011;59072;42.144;25.200;2023-06-10T01:07:00;11.93;;;7.63;;
71148;SDS011;59072;42.144;25.200;2023-06-10T01:09:42;15.45;;;7.90;;
71148;SDS011;59072;42.144;25.200;2023-06-10T01:12:29;10.10;;;6.72;;
71148;SDS011;59072;42.144;25.200;2023-06-10T01:14:59;13.77;;;7.03;;
71148;SDS011;59072;42.144;25.200;2023-06-10T01:17:26;13.68;;;7.55;;
71148;SDS011;59072;42.144;25.200;2023-06-10T01:19:55;10.10;;;6.88;;
71148;SDS011;59072;42.144;25.200;2023-06-10T01:22:26;10.55;;;7.47;;
71148;SDS011;59072;42.144;25.200;2023-06-10T01:27:29;10.57;;;6.77;;
71148;SDS011;59072;42.144;25.200;2023-06-10T01:30:17;12.77;;;7.22;;
71148;SDS011;59072;42.144;25.200;2023-06-10T01:32:46;11.68;;;6.68;;
71148;SDS011;59072;42.144;25.200;2023-06-10T01:35:15;10.40;;;6.80;;
71148;SDS011;59072;42.144;25.200;2023-06-10T01:37:42;10.77;;;6.40;;
71148;SDS011;59072;42.144;25.200;2023-06-10T01:40:11;10.10;;;6.55;;
71148;SDS011;59072;42.144;25.200;2023-06-10T01:42:38;10.02;;;6.30;;
71148;SDS011;59072;42.144;25.200;2023-06-10T01:45:06;9.10;;;6.60;;
71148;SDS011;59072;42.144;25.200;2023-06-10T01:47:32;12.88;;;6.38;;
71148;SDS011;59072;42.144;25.200;2023-06-10T01:49:57;10.90;;;6.85;;
71148;SDS011;59072;42.144;25.200;2023-06-10T01:52:23;11.27;;;6.65;;
71148;SDS011;59072;42.144;25.200;2023-06-10T01:54:48;9.63;;;6.32;;
71148;SDS011;59072;42.144;25.200;2023-06-10T01:57:14;11.30;;;6.68;;
71148;SDS011;59072;42.144;25.200;2023-06-10T01:59:40;11.93;;;6.50;;
71148;SDS011;59072;42.144;25.200;2023-06-10T02:02:09;12.50;;;7.10;;
71148;SDS011;59072;42.144;25.200;2023-06-10T02:04:34;11.10;;;7.47;;
71148;SDS011;59072;42.144;25.200;2023-06-10T02:07:00;13.45;;;8.20;;
71148;SDS011;59072;42.144;25.200;2023-06-10T02:09:29;11.23;;;7.03;;
71148;SDS011;59072;42.144;25.200;2023-06-10T02:11:55;11.45;;;7.55;;
71148;SDS011;59072;42.144;25.200;2023-06-10T02:14:20;10.38;;;6.72;;
71148;SDS011;59072;42.144;25.200;2023-06-10T02:16:46;11.95;;;7.15;;
71148;SDS011;59072;42.144;25.200;2023-06-10T02:19:11;12.50;;;7.20;;
71148;SDS011;59072;42.144;25.200;2023-06-10T02:21:37;13.23;;;8.10;;
71148;SDS011;59072;42.144;25.200;2023-06-10T02:24:03;13.80;;;7.50;;
71148;SDS011;59072;42.144;25.200;2023-06-10T02:26:29;18.63;;;7.57;;
71148;SDS011;59072;42.144;25.200;2023-06-10T02:28:55;13.25;;;7.63;;
71148;SDS011;59072;42.144;25.200;2023-06-10T02:31:20;11.10;;;6.78;;
71148;SDS011;59072;42.144;25.200;2023-06-10T02:33:46;10.20;;;6.85;;
71148;SDS011;59072;42.144;25.200;2023-06-10T02:36:11;17.05;;;7.50;;
71148;SDS011;59072;42.144;25.200;2023-06-10T02:38:41;13.90;;;7.63;;
71148;SDS011;59072;42.144;25.200;2023-06-10T02:41:09;10.15;;;7.18;;
71148;SDS011;59072;42.144;25.200;2023-06-10T02:43:34;12.20;;;7.80;;
71148;SDS011;59072;42.144;25.200;2023-06-10T02:46:00;10.82;;;7.43;;
71148;SDS011;59072;42.144;25.200;2023-06-10T02:48:26;12.70;;;7.93;;
71148;SDS011;59072;42.144;25.200;2023-06-10T02:50:52;12.70;;;7.97;;
71148;SDS011;59072;42.144;25.200;2023-06-10T02:53:17;11.60;;;7.88;;
71148;SDS011;59072;42.144;25.200;2023-06-10T02:55:42;11.95;;;7.78;;
71148;SDS011;59072;42.144;25.200;2023-06-10T02:58:09;10.95;;;7.63;;
71148;SDS011;59072;42.144;25.200;2023-06-10T03:00:34;17.40;;;8.55;;
71148;SDS011;59072;42.144;25.200;2023-06-10T03:03:00;12.52;;;7.95;;
71148;SDS011;59072;42.144;25.200;2023-06-10T03:05:28;19.15;;;8.70;;
71148;SDS011;59072;42.144;25.200;2023-06-10T03:07:54;16.13;;;8.40;;
71148;SDS011;59072;42.144;25.200;2023-06-10T03:10:20;12.10;;;7.45;;
71148;SDS011;59072;42.144;25.200;2023-06-10T03:12:45;13.00;;;7.75;;
71148;SDS011;59072;42.144;25.200;2023-06-10T03:15:11;17.60;;;8.20;;
71148;SDS011;59072;42.144;25.200;2023-06-10T03:17:36;19.17;;;7.85;;
71148;SDS011;59072;42.144;25.200;2023-06-10T03:20:02;16.20;;;8.20;;
71148;SDS011;59072;42.144;25.200;2023-06-10T03:22:30;20.05;;;7.93;;
71148;SDS011;59072;42.144;25.200;2023-06-10T03:24:56;15.60;;;8.63;;
71148;SDS011;59072;42.144;25.200;2023-06-10T03:27:22;11.27;;;7.22;;
71148;SDS011;59072;42.144;25.200;2023-06-10T03:29:48;19.25;;;7.57;;
71148;SDS011;59072;42.144;25.200;2023-06-10T03:32:13;15.00;;;7.53;;
71148;SDS011;59072;42.144;25.200;2023-06-10T03:34:40;13.65;;;6.50;;
71148;SDS011;59072;42.144;25.200;2023-06-10T03:37:05;12.60;;;6.93;;
71148;SDS011;59072;42.144;25.200;2023-06-10T03:39:31;11.93;;;7.82;;
71148;SDS011;59072;42.144;25.200;2023-06-10T03:41:57;13.02;;;6.78;;
71148;SDS011;59072;42.144;25.200;2023-06-10T03:44:24;12.65;;;7.53;;
71148;SDS011;59072;42.144;25.200;2023-06-10T03:46:50;13.85;;;7.50;;
71148;SDS011;59072;42.144;25.200;2023-06-10T03:49:16;15.63;;;7.32;;
71148;SDS011;59072;42.144;25.200;2023-06-10T03:51:42;15.90;;;8.25;;
71148;SDS011;59072;42.144;25.200;2023-06-10T03:54:08;16.30;;;7.70;;
71148;SDS011;59072;42.144;25.200;2023-06-10T03:56:33;14.30;;;7.90;;
71148;SDS011;59072;42.144;25.200;2023-06-10T03:59:00;11.52;;;7.43;;
71148;SDS011;59072;42.144;25.200;2023-06-10T04:01:26;14.73;;;8.18;;
71148;SDS011;59072;42.144;25.200;2023-06-10T04:03:52;14.88;;;10.25;;
71148;SDS011;59072;42.144;25.200;2023-06-10T04:06:19;15.68;;;9.63;;
71148;SDS011;59072;42.144;25.200;2023-06-10T04:08:45;13.50;;;9.63;;
71148;SDS011;59072;42.144;25.200;2023-06-10T04:11:10;14.30;;;8.43;;
71148;SDS011;59072;42.144;25.200;2023-06-10T04:13:35;15.27;;;8.48;;
71148;SDS011;59072;42.144;25.200;2023-06-10T04:16:01;14.95;;;8.95;;
71148;SDS011;59072;42.144;25.200;2023-06-10T04:18:27;15.45;;;9.15;;
71148;SDS011;59072;42.144;25.200;2023-06-10T04:20:53;15.57;;;8.65;;
71148;SDS011;59072;42.144;25.200;2023-06-10T04:23:19;17.85;;;9.48;;
71148;SDS011;59072;42.144;25.200;2023-06-10T04:25:44;16.77;;;9.40;;
71148;SDS011;59072;42.144;25.200;2023-06-10T04:28:10;17.50;;;9.38;;
71148;SDS011;59072;42.144;25.200;2023-06-10T04:30:35;14.48;;;9.32;;
71148;SDS011;59072;42.144;25.200;2023-06-10T04:33:01;17.08;;;9.45;;
71148;SDS011;59072;42.144;25.200;2023-06-10T04:35:26;13.73;;;9.38;;
71148;SDS011;59072;42.144;25.200;2023-06-10T04:37:52;15.85;;;9.55;;
71148;SDS011;59072;42.144;25.200;2023-06-10T04:40:18;18.23;;;9.23;;
71148;SDS011;59072;42.144;25.200;2023-06-10T04:42:44;20.13;;;10.23;;
71148;SDS011;59072;42.144;25.200;2023-06-10T04:45:10;18.67;;;10.18;;
71148;SDS011;59072;42.144;25.200;2023-06-10T04:47:35;18.88;;;9.90;;
71148;SDS011;59072;42.144;25.200;2023-06-10T04:50:01;22.15;;;11.63;;
71148;SDS011;59072;42.144;25.200;2023-06-10T04:52:28;19.37;;;11.67;;
71148;SDS011;59072;42.144;25.200;2023-06-10T04:54:53;20.27;;;11.75;;
71148;SDS011;59072;42.144;25.200;2023-06-10T04:57:19;22.52;;;11.93;;
71148;SDS011;59072;42.144;25.200;2023-06-10T04:59:46;22.85;;;11.38;;
71148;SDS011;59072;42.144;25.200;2023-06-10T05:02:12;20.25;;;11.38;;
71148;SDS011;59072;42.144;25.200;2023-06-10T05:04:37;14.68;;;10.23;;
71148;SDS011;59072;42.144;25.200;2023-06-10T05:07:02;16.35;;;10.75;;
71148;SDS011;59072;42.144;25.200;2023-06-10T05:09:28;16.50;;;10.80;;
71148;SDS011;59072;42.144;25.200;2023-06-10T05:11:54;15.48;;;11.43;;
71148;SDS011;59072;42.144;25.200;2023-06-10T05:14:19;16.15;;;11.30;;
71148;SDS011;59072;42.144;25.200;2023-06-10T05:16:46;14.85;;;10.23;;
71148;SDS011;59072;42.144;25.200;2023-06-10T05:19:12;14.63;;;11.07;;
71148;SDS011;59072;42.144;25.200;2023-06-10T05:21:37;13.85;;;11.23;;
71148;SDS011;59072;42.144;25.200;2023-06-10T05:24:03;15.68;;;11.00;;
71148;SDS011;59072;42.144;25.200;2023-06-10T05:26:28;20.25;;;11.80;;
71148;SDS011;59072;42.144;25.200;2023-06-10T05:28:56;19.15;;;13.00;;
71148;SDS011;59072;42.144;25.200;2023-06-10T05:31:22;18.17;;;14.00;;
71148;SDS011;59072;42.144;25.200;2023-06-10T05:33:47;21.77;;;16.42;;
71148;SDS011;59072;42.144;25.200;2023-06-10T05:36:12;19.42;;;15.27;;
71148;SDS011;59072;42.144;25.200;2023-06-10T05:38:38;16.40;;;13.88;;
71148;SDS011;59072;42.144;25.200;2023-06-10T05:41:03;16.20;;;12.05;;
71148;SDS011;59072;42.144;25.200;2023-06-10T05:43:29;19.02;;;13.32;;
71148;SDS011;59072;42.144;25.200;2023-06-10T05:45:54;18.85;;;14.40;;
71148;SDS011;59072;42.144;25.200;2023-06-10T05:48:20;22.52;;;16.60;;
71148;SDS011;59072;42.144;25.200;2023-06-10T05:50:45;21.38;;;16.55;;
71148;SDS011;59072;42.144;25.200;2023-06-10T05:53:13;22.35;;;16.67;;
71148;SDS011;59072;42.144;25.200;2023-06-10T05:55:41;22.92;;;18.23;;
71148;SDS011;59072;42.144;25.200;2023-06-10T05:58:10;23.50;;;18.85;;
71148;SDS011;59072;42.144;25.200;2023-06-10T06:00:37;27.88;;;17.67;;
71148;SDS011;59072;42.144;25.200;2023-06-10T06:03:06;20.67;;;14.25;;
71148;SDS011;59072;42.144;25.200;2023-06-10T06:05:33;19.50;;;13.90;;
71148;SDS011;59072;42.144;25.200;2023-06-10T06:08:03;20.33;;;13.60;;
71148;SDS011;59072;42.144;25.200;2023-06-10T06:10:29;31.17;;;15.23;;
71148;SDS011;59072;42.144;25.200;2023-06-10T06:12:55;13.52;;;10.73;;
71148;SDS011;59072;42.144;25.200;2023-06-10T06:15:20;13.32;;;11.20;;
71148;SDS011;59072;42.144;25.200;2023-06-10T06:17:46;17.00;;;10.63;;
71148;SDS011;59072;42.144;25.200;2023-06-10T06:20:11;13.50;;;9.85;;
71148;SDS011;59072;42.144;25.200;2023-06-10T06:22:37;13.90;;;10.00;;
71148;SDS011;59072;42.144;25.200;2023-06-10T06:25:03;11.57;;;9.15;;
71148;SDS011;59072;42.144;25.200;2023-06-10T06:27:28;12.73;;;9.65;;
71148;SDS011;59072;42.144;25.200;2023-06-10T06:29:54;13.27;;;9.43;;
71148;SDS011;59072;42.144;25.200;2023-06-10T06:32:20;10.00;;;8.23;;
71148;SDS011;59072;42.144;25.200;2023-06-10T06:34:47;11.30;;;8.00;;
71148;SDS011;59072;42.144;25.200;2023-06-10T06:37:14;11.38;;;7.53;;
71148;SDS011;59072;42.144;25.200;2023-06-10T06:39:40;12.77;;;7.70;;
71148;SDS011;59072;42.144;25.200;2023-06-10T06:42:05;11.63;;;7.95;;
71148;SDS011;59072;42.144;25.200;2023-06-10T06:44:31;12.30;;;7.93;;
71148;SDS011;59072;42.144;25.200;2023-06-10T06:46:56;10.02;;;7.80;;
71148;SDS011;59072;42.144;25.200;2023-06-10T06:49:21;11.85;;;8.00;;
71148;SDS011;59072;42.144;25.200;2023-06-10T06:51:47;18.20;;;8.00;;
71148;SDS011;59072;42.144;25.200;2023-06-10T06:54:12;9.77;;;6.93;;
71148;SDS011;59072;42.144;25.200;2023-06-10T06:56:38;9.25;;;7.13;;
71148;SDS011;59072;42.144;25.200;2023-06-10T06:59:03;10.57;;;7.60;;
71148;SDS011;59072;42.144;25.200;2023-06-10T07:01:29;11.10;;;7.63;;
71148;SDS011;59072;42.144;25.200;2023-06-10T07:03:57;12.18;;;7.70;;
71148;SDS011;59072;42.144;25.200;2023-06-10T07:08:48;10.20;;;7.63;;
71148;SDS011;59072;42.144;25.200;2023-06-10T07:11:14;9.73;;;7.45;;
71148;SDS011;59072;42.144;25.200;2023-06-10T07:13:41;12.27;;;8.07;;
71148;SDS011;59072;42.144;25.200;2023-06-10T07:16:06;11.32;;;7.47;;
71148;SDS011;59072;42.144;25.200;2023-06-10T07:18:32;11.73;;;8.05;;
71148;SDS011;59072;42.144;25.200;2023-06-10T07:20:57;12.15;;;7.65;;
71148;SDS011;59072;42.144;25.200;2023-06-10T07:23:22;16.02;;;8.60;;
71148;SDS011;59072;42.144;25.200;2023-06-10T07:25:48;10.15;;;7.03;;
71148;SDS011;59072;42.144;25.200;2023-06-10T07:28:13;11.88;;;8.13;;
71148;SDS011;59072;42.144;25.200;2023-06-10T07:30:39;8.55;;;7.03;;
71148;SDS011;59072;42.144;25.200;2023-06-10T07:33:04;10.38;;;6.85;;
71148;SDS011;59072;42.144;25.200;2023-06-10T07:35:32;10.43;;;6.53;;
71148;SDS011;59072;42.144;25.200;2023-06-10T07:37:58;9.57;;;6.70;;
71148;SDS011;59072;42.144;25.200;2023-06-10T07:40:23;13.25;;;6.68;;
71148;SDS011;59072;42.144;25.200;2023-06-10T07:42:49;9.85;;;6.88;;
71148;SDS011;59072;42.144;25.200;2023-06-10T07:45:15;9.55;;;6.85;;
71148;SDS011;59072;42.144;25.200;2023-06-10T07:47:42;8.55;;;6.28;;
71148;SDS011;59072;42.144;25.200;2023-06-10T07:50:08;8.32;;;6.03;;
71148;SDS011;59072;42.144;25.200;2023-06-10T07:52:33;9.25;;;5.70;;
71148;SDS011;59072;42.144;25.200;2023-06-10T07:54:59;8.43;;;5.65;;
71148;SDS011;59072;42.144;25.200;2023-06-10T07:57:25;8.35;;;5.93;;
71148;SDS011;59072;42.144;25.200;2023-06-10T07:59:50;11.13;;;6.25;;
71148;SDS011;59072;42.144;25.200;2023-06-10T08:02:16;8.00;;;6.05;;
71148;SDS011;59072;42.144;25.200;2023-06-10T08:04:41;8.93;;;5.72;;
71148;SDS011;59072;42.144;25.200;2023-06-10T08:07:07;9.13;;;6.28;;
71148;SDS011;59072;42.144;25.200;2023-06-10T08:09:32;7.85;;;6.20;;
71148;SDS011;59072;42.144;25.200;2023-06-10T08:11:57;8.43;;;6.57;;
71148;SDS011;59072;42.144;25.200;2023-06-10T08:14:23;8.77;;;6.30;;
71148;SDS011;59072;42.144;25.200;2023-06-10T08:16:48;8.15;;;6.72;;
71148;SDS011;59072;42.144;25.200;2023-06-10T08:19:14;9.32;;;6.20;;
71148;SDS011;59072;42.144;25.200;2023-06-10T08:21:39;6.70;;;5.20;;
71148;SDS011;59072;42.144;25.200;2023-06-10T08:24:05;8.65;;;5.10;;
71148;SDS011;59072;42.144;25.200;2023-06-10T08:26:32;8.30;;;5.57;;
71148;SDS011;59072;42.144;25.200;2023-06-10T08:28:57;8.60;;;5.43;;
71148;SDS011;59072;42.144;25.200;2023-06-10T08:31:23;9.63;;;5.68;;
71148;SDS011;59072;42.144;25.200;2023-06-10T08:33:48;8.27;;;6.18;;
71148;SDS011;59072;42.144;25.200;2023-06-10T08:36:14;7.93;;;5.40;;
71148;SDS011;59072;42.144;25.200;2023-06-10T08:38:39;8.52;;;4.93;;
71148;SDS011;59072;42.144;25.200;2023-06-10T08:41:05;7.45;;;5.57;;
71148;SDS011;59072;42.144;25.200;2023-06-10T08:43:39;7.30;;;4.78;;
71148;SDS011;59072;42.144;25.200;2023-06-10T08:46:13;7.82;;;4.55;;
71148;SDS011;59072;42.144;25.200;2023-06-10T08:48:41;13.02;;;5.55;;
71148;SDS011;59072;42.144;25.200;2023-06-10T08:51:08;6.55;;;4.50;;
71148;SDS011;59072;42.144;25.200;2023-06-10T08:53:36;7.78;;;4.53;;
71148;SDS011;59072;42.144;25.200;2023-06-10T08:56:07;11.00;;;5.20;;
71148;SDS011;59072;42.144;25.200;2023-06-10T08:58:35;7.65;;;5.00;;
71148;SDS011;59072;42.144;25.200;2023-06-10T09:01:07;8.25;;;5.10;;
71148;SDS011;59072;42.144;25.200;2023-06-10T09:03:33;7.60;;;4.50;;
71148;SDS011;59072;42.144;25.200;2023-06-10T09:06:03;6.35;;;4.88;;
71148;SDS011;59072;42.144;25.200;2023-06-10T09:08:30;8.55;;;4.72;;
71148;SDS011;59072;42.144;25.200;2023-06-10T09:10:56;7.15;;;4.80;;
71148;SDS011;59072;42.144;25.200;2023-06-10T09:13:22;7.05;;;5.13;;
71148;SDS011;59072;42.144;25.200;2023-06-10T09:15:48;6.70;;;4.60;;
71148;SDS011;59072;42.144;25.200;2023-06-10T09:18:14;7.32;;;4.40;;
71148;SDS011;59072;42.144;25.200;2023-06-10T09:20:41;8.88;;;4.40;;
71148;SDS011;59072;42.144;25.200;2023-06-10T09:23:07;6.18;;;3.88;;
71148;SDS011;59072;42.144;25.200;2023-06-10T09:25:36;8.82;;;4.15;;
71148;SDS011;59072;42.144;25.200;2023-06-10T09:28:03;6.05;;;3.97;;
71148;SDS011;59072;42.144;25.200;2023-06-10T09:30:29;6.22;;;3.63;;
71148;SDS011;59072;42.144;25.200;2023-06-10T09:32:57;8.57;;;3.80;;
71148;SDS011;59072;42.144;25.200;2023-06-10T09:37:53;7.80;;;6.03;;
71148;SDS011;59072;42.144;25.200;2023-06-10T09:40:20;17.77;;;13.27;;
71148;SDS011;59072;42.144;25.200;2023-06-10T09:42:45;9.32;;;3.70;;
71148;SDS011;59072;42.144;25.200;2023-06-10T09:45:14;9.43;;;3.97;;
71148;SDS011;59072;42.144;25.200;2023-06-10T09:47:39;10.20;;;3.80;;
71148;SDS011;59072;42.144;25.200;2023-06-10T09:50:05;6.93;;;3.53;;
71148;SDS011;59072;42.144;25.200;2023-06-10T09:52:30;7.55;;;3.58;;
71148;SDS011;59072;42.144;25.200;2023-06-10T09:55:02;8.77;;;4.32;;
71148;SDS011;59072;42.144;25.200;2023-06-10T09:57:31;8.90;;;3.67;;
71148;SDS011;59072;42.144;25.200;2023-06-10T09:59:58;4.80;;;3.17;;
71148;SDS011;59072;42.144;25.200;2023-06-10T10:02:24;8.43;;;3.63;;
71148;SDS011;59072;42.144;25.200;2023-06-10T10:04:49;8.27;;;3.70;;
71148;SDS011;59072;42.144;25.200;2023-06-10T10:07:15;5.97;;;3.78;;
71148;SDS011;59072;42.144;25.200;2023-06-10T10:09:41;10.98;;;4.25;;
71148;SDS011;59072;42.144;25.200;2023-06-10T10:12:10;7.22;;;4.75;;
71148;SDS011;59072;42.144;25.200;2023-06-10T10:14:42;7.07;;;3.78;;
71148;SDS011;59072;42.144;25.200;2023-06-10T10:17:12;7.20;;;4.32;;
71148;SDS011;59072;42.144;25.200;2023-06-10T10:19:41;7.93;;;3.70;;
71148;SDS011;59072;42.144;25.200;2023-06-10T10:22:14;5.80;;;4.10;;
71148;SDS011;59072;42.144;25.200;2023-06-10T10:24:51;7.45;;;3.90;;
71148;SDS011;59072;42.144;25.200;2023-06-10T10:27:26;8.20;;;3.40;;
71148;SDS011;59072;42.144;25.200;2023-06-10T10:29:53;6.57;;;4.32;;
71148;SDS011;59072;42.144;25.200;2023-06-10T10:32:21;7.45;;;3.60;;
71148;SDS011;59072;42.144;25.200;2023-06-10T10:34:55;7.20;;;3.90;;
71148;SDS011;59072;42.144;25.200;2023-06-10T10:37:27;7.88;;;3.55;;
71148;SDS011;59072;42.144;25.200;2023-06-10T10:39:53;7.07;;;3.72;;
71148;SDS011;59072;42.144;25.200;2023-06-10T10:42:19;5.78;;;3.55;;
71148;SDS011;59072;42.144;25.200;2023-06-10T10:44:45;6.15;;;3.47;;
71148;SDS011;59072;42.144;25.200;2023-06-10T10:47:14;7.40;;;3.75;;
71148;SDS011;59072;42.144;25.200;2023-06-10T10:49:42;5.53;;;3.55;;
71148;SDS011;59072;42.144;25.200;2023-06-10T10:52:12;6.35;;;3.40;;
71148;SDS011;59072;42.144;25.200;2023-06-10T10:54:39;6.07;;;3.25;;
71148;SDS011;59072;42.144;25.200;2023-06-10T10:57:13;7.22;;;3.83;;
71148;SDS011;59072;42.144;25.200;2023-06-10T11:04:57;7.93;;;3.67;;
71148;SDS011;59072;42.144;25.200;2023-06-10T11:07:24;8.57;;;3.38;;
71148;SDS011;59072;42.144;25.200;2023-06-10T11:09:57;7.40;;;3.55;;
71148;SDS011;59072;42.144;25.200;2023-06-10T11:15:13;5.65;;;3.13;;
71148;SDS011;59072;42.144;25.200;2023-06-10T11:20:41;7.13;;;3.30;;
71148;SDS011;59072;42.144;25.200;2023-06-10T11:23:32;6.72;;;4.10;;
71148;SDS011;59072;42.144;25.200;2023-06-10T11:26:14;6.00;;;3.40;;
71148;SDS011;59072;42.144;25.200;2023-06-10T11:33:54;6.05;;;3.13;;
71148;SDS011;59072;42.144;25.200;2023-06-10T11:36:24;5.45;;;3.35;;
71148;SDS011;59072;42.144;25.200;2023-06-10T11:38:51;6.50;;;3.47;;
71148;SDS011;59072;42.144;25.200;2023-06-10T11:41:20;5.53;;;3.30;;
71148;SDS011;59072;42.144;25.200;2023-06-10T11:43:46;8.65;;;3.08;;
71148;SDS011;59072;42.144;25.200;2023-06-10T11:46:12;5.55;;;3.08;;
71148;SDS011;59072;42.144;25.200;2023-06-10T11:48:38;6.65;;;3.42;;
71148;SDS011;59072;42.144;25.200;2023-06-10T11:51:06;6.93;;;3.20;;
71148;SDS011;59072;42.144;25.200;2023-06-10T11:53:32;5.53;;;3.30;;
71148;SDS011;59072;42.144;25.200;2023-06-10T11:55:58;5.93;;;3.00;;
71148;SDS011;59072;42.144;25.200;2023-06-10T11:58:23;5.25;;;3.38;;
71148;SDS011;59072;42.144;25.200;2023-06-10T12:00:49;6.97;;;3.75;;
71148;SDS011;59072;42.144;25.200;2023-06-10T12:03:19;9.10;;;3.47;;
71148;SDS011;59072;42.144;25.200;2023-06-10T12:05:56;8.23;;;3.70;;
71148;SDS011;59072;42.144;25.200;2023-06-10T12:08:23;7.60;;;3.70;;
71148;SDS011;59072;42.144;25.200;2023-06-10T12:10:49;5.07;;;3.53;;
71148;SDS011;59072;42.144;25.200;2023-06-10T12:13:15;6.78;;;3.88;;
71148;SDS011;59072;42.144;25.200;2023-06-10T12:18:08;5.72;;;3.33;;
71148;SDS011;59072;42.144;25.200;2023-06-10T12:20:43;5.78;;;3.17;;
71148;SDS011;59072;42.144;25.200;2023-06-10T12:23:09;5.00;;;3.50;;
71148;SDS011;59072;42.144;25.200;2023-06-10T12:25:35;6.72;;;3.50;;
71148;SDS011;59072;42.144;25.200;2023-06-10T12:28:02;8.60;;;3.97;;
71148;SDS011;59072;42.144;25.200;2023-06-10T12:30:28;8.15;;;3.63;;
71148;SDS011;59072;42.144;25.200;2023-06-10T12:32:54;6.38;;;3.65;;
71148;SDS011;59072;42.144;25.200;2023-06-10T12:35:23;8.15;;;3.40;;
71148;SDS011;59072;42.144;25.200;2023-06-10T12:37:54;5.72;;;2.92;;
71148;SDS011;59072;42.144;25.200;2023-06-10T12:40:25;6.13;;;3.28;;
71148;SDS011;59072;42.144;25.200;2023-06-10T12:42:53;6.78;;;3.72;;
71148;SDS011;59072;42.144;25.200;2023-06-10T12:45:32;5.60;;;3.58;;
71148;SDS011;59072;42.144;25.200;2023-06-10T12:48:18;6.43;;;3.45;;
71148;SDS011;59072;42.144;25.200;2023-06-10T12:50:44;9.73;;;3.40;;
71148;SDS011;59072;42.144;25.200;2023-06-10T12:53:10;7.10;;;3.60;;
71148;SDS011;59072;42.144;25.200;2023-06-10T12:55:36;7.43;;;4.20;;
71148;SDS011;59072;42.144;25.200;2023-06-10T12:58:02;6.13;;;3.60;;
71148;SDS011;59072;42.144;25.200;2023-06-10T13:00:28;5.97;;;3.45;;
71148;SDS011;59072;42.144;25.200;2023-06-10T13:02:59;7.03;;;3.30;;
71148;SDS011;59072;42.144;25.200;2023-06-10T13:05:26;8.07;;;3.45;;
71148;SDS011;59072;42.144;25.200;2023-06-10T13:07:51;5.65;;;3.13;;
71148;SDS011;59072;42.144;25.200;2023-06-10T13:10:18;10.73;;;3.42;;
71148;SDS011;59072;42.144;25.200;2023-06-10T13:12:44;8.32;;;3.20;;
71148;SDS011;59072;42.144;25.200;2023-06-10T13:15:10;5.07;;;3.00;;
71148;SDS011;59072;42.144;25.200;2023-06-10T13:17:36;5.80;;;2.70;;
71148;SDS011;59072;42.144;25.200;2023-06-10T13:20:05;5.43;;;2.83;;
71148;SDS011;59072;42.144;25.200;2023-06-10T13:22:31;4.68;;;2.70;;
71148;SDS011;59072;42.144;25.200;2023-06-10T13:25:01;3.95;;;2.30;;
71148;SDS011;59072;42.144;25.200;2023-06-10T13:27:28;4.18;;;2.60;;
71148;SDS011;59072;42.144;25.200;2023-06-10T13:29:53;9.07;;;3.75;;
71148;SDS011;59072;42.144;25.200;2023-06-10T13:32:19;7.38;;;3.30;;
71148;SDS011;59072;42.144;25.200;2023-06-10T13:34:44;6.68;;;3.50;;
71148;SDS011;59072;42.144;25.200;2023-06-10T13:37:10;6.25;;;3.35;;
71148;SDS011;59072;42.144;25.200;2023-06-10T13:39:37;4.55;;;3.05;;
71148;SDS011;59072;42.144;25.200;2023-06-10T13:42:03;7.38;;;3.17;;
71148;SDS011;59072;42.144;25.200;2023-06-10T13:44:29;6.00;;;3.15;;
71148;SDS011;59072;42.144;25.200;2023-06-10T13:46:58;5.30;;;2.97;;
71148;SDS011;59072;42.144;25.200;2023-06-10T13:49:24;5.75;;;3.20;;
71148;SDS011;59072;42.144;25.200;2023-06-10T13:51:50;7.65;;;3.05;;
71148;SDS011;59072;42.144;25.200;2023-06-10T13:54:15;9.85;;;3.65;;
71148;SDS011;59072;42.144;25.200;2023-06-10T13:56:41;8.10;;;4.68;;
71148;SDS011;59072;42.144;25.200;2023-06-10T13:59:06;5.20;;;2.85;;
71148;SDS011;59072;42.144;25.200;2023-06-10T14:01:32;6.55;;;3.50;;
71148;SDS011;59072;42.144;25.200;2023-06-10T14:03:57;8.00;;;3.30;;
71148;SDS011;59072;42.144;25.200;2023-06-10T14:06:23;5.18;;;3.25;;
71148;SDS011;59072;42.144;25.200;2023-06-10T14:08:48;5.75;;;3.28;;
71148;SDS011;59072;42.144;25.200;2023-06-10T14:11:13;8.15;;;3.33;;
71148;SDS011;59072;42.144;25.200;2023-06-10T14:13:39;6.25;;;3.15;;
71148;SDS011;59072;42.144;25.200;2023-06-10T14:16:05;6.45;;;3.15;;
71148;SDS011;59072;42.144;25.200;2023-06-10T14:18:30;7.22;;;3.35;;
71148;SDS011;59072;42.144;25.200;2023-06-10T14:20:56;5.82;;;3.00;;
71148;SDS011;59072;42.144;25.200;2023-06-10T14:23:21;5.75;;;3.00;;
71148;SDS011;59072;42.144;25.200;2023-06-10T14:25:47;6.60;;;3.40;;
71148;SDS011;59072;42.144;25.200;2023-06-10T14:28:12;7.22;;;3.47;;
71148;SDS011;59072;42.144;25.200;2023-06-10T14:30:38;8.02;;;3.03;;
71148;SDS011;59072;42.144;25.200;2023-06-10T14:33:03;6.80;;;3.60;;
71148;SDS011;59072;42.144;25.200;2023-06-10T14:35:29;5.78;;;3.10;;
71148;SDS011;59072;42.144;25.200;2023-06-10T14:37:54;6.78;;;3.30;;
71148;SDS011;59072;42.144;25.200;2023-06-10T14:40:20;6.32;;;3.40;;
71148;SDS011;59072;42.144;25.200;2023-06-10T14:42:48;9.18;;;3.30;;
71148;SDS011;59072;42.144;25.200;2023-06-10T14:45:13;9.32;;;3.35;;
71148;SDS011;59072;42.144;25.200;2023-06-10T14:47:40;6.07;;;3.40;;
71148;SDS011;59072;42.144;25.200;2023-06-10T14:50:05;5.97;;;3.10;;
71148;SDS011;59072;42.144;25.200;2023-06-10T14:52:31;5.72;;;3.15;;